Time;durP1;ratioP1;P1;durP2;ratioP2;P2;SDS_P1;SDS_P2;PMS_P1;PMS_P2;Temp;Humidity;BMP_temperature;BMP_pressure;BME280_temperature;BME280_humidity;BME280_pressure;Samples;Min_cycle;Max_cycle;Signal;HPM_P1;HPM_P2
2021/04/20 00:00:05;;;;;;;8.18;3.17;;;20.20;98.10;;;;;;4995660;28;20026;-67
2021/04/20 00:02:32;;;;;;;6.32;4.32;;;20.20;97.60;;;;;;4998558;28;20128;-67
2021/04/20 00:04:59;;;;;;;9.30;3.13;;;20.40;97.20;;;;;;5015016;28;20061;-68
2021/04/20 00:07:29;;;;;;;6.47;3.60;;;20.60;97.40;;;;;;5005746;28;20022;-67
2021/04/20 00:09:56;;;;;;;7.35;3.00;;;20.70;97.30;;;;;;4995855;28;20031;-67
2021/04/20 00:12:23;;;;;;;6.75;3.30;;;21.00;97.10;;;;;;4987701;28;20023;-67
2021/04/20 00:14:51;;;;;;;9.10;3.08;;;20.60;96.50;;;;;;4990491;28;20033;-67
2021/04/20 00:17:18;;;;;;;10.55;3.13;;;21.00;96.10;;;;;;4993603;28;20025;-67
2021/04/20 00:19:45;;;;;;;8.65;3.38;;;20.40;95.70;;;;;;5002568;28;20023;-67
2021/04/20 00:22:12;;;;;;;9.20;2.90;;;20.30;96.10;;;;;;4986225;28;20066;-67
2021/04/20 00:24:40;;;;;;;8.18;3.42;;;20.40;96.90;;;;;;4991023;28;20089;-67
2021/04/20 00:27:07;;;;;;;7.53;2.40;;;20.80;96.60;;;;;;4995047;28;20398;-67
2021/04/20 00:29:34;;;;;;;6.18;2.50;;;21.10;94.90;;;;;;4990504;28;20026;-67
2021/04/20 00:32:02;;;;;;;6.88;2.17;;;20.90;94.30;;;;;;4991506;28;20124;-67
2021/04/20 00:34:29;;;;;;;6.15;2.10;;;21.00;94.40;;;;;;4987793;28;20034;-67
2021/04/20 00:36:56;;;;;;;5.50;2.40;;;20.80;94.10;;;;;;4991549;28;20486;-69
2021/04/20 00:39:24;;;;;;;12.85;3.35;;;21.40;94.40;;;;;;4994638;28;20360;-68
2021/04/20 00:42:04;;;;;;;10.07;2.58;;;21.80;96.00;;;;;;4996640;28;20086;-68
2021/04/20 00:44:35;;;;;;;4.97;2.70;;;21.40;94.20;;;;;;4993269;28;20549;-68
2021/04/20 00:47:04;;;;;;;3.38;2.17;;;21.80;94.30;;;;;;4997476;28;20038;-68
2021/04/20 00:49:32;;;;;;;6.60;2.28;;;21.50;92.50;;;;;;4995964;28;20042;-67
2021/04/20 00:51:59;;;;;;;4.60;2.45;;;21.60;93.80;;;;;;4994174;28;20031;-66
2021/04/20 00:54:27;;;;;;;8.32;2.28;;;21.90;93.90;;;;;;5012953;28;20113;-67
2021/04/20 00:56:55;;;;;;;4.57;2.10;;;22.10;92.80;;;;;;5009657;28;20037;-67
2021/04/20 00:59:22;;;;;;;4.65;2.03;;;21.70;91.90;;;;;;4996883;28;20049;-66
2021/04/20 01:01:50;;;;;;;5.13;2.28;;;21.70;92.30;;;;;;4994055;28;20076;-68
2021/04/20 01:04:19;;;;;;;4.70;1.70;;;21.40;92.10;;;;;;4993613;28;20039;-68
2021/04/20 01:06:48;;;;;;;6.13;2.30;;;21.50;92.70;;;;;;4993127;28;20080;-68
2021/04/20 01:09:18;;;;;;;4.38;1.90;;;22.00;92.60;;;;;;5009822;28;20482;-68
2021/04/20 01:11:47;;;;;;;4.97;1.55;;;22.30;91.00;;;;;;5005066;28;20076;-68
2021/04/20 01:14:15;;;;;;;3.85;1.20;;;22.30;89.40;;;;;;4977333;28;20038;-68
2021/04/20 01:16:43;;;;;;;4.85;1.70;;;22.00;90.10;;;;;;4997525;28;20021;-67
2021/04/20 01:19:16;;;;;;;4.63;1.80;;;22.20;90.90;;;;;;5006234;28;20169;-67
2021/04/20 01:21:47;;;;;;;4.03;1.30;;;22.90;90.30;;;;;;5004214;28;20054;-68
2021/04/20 01:24:27;;;;;;;5.75;1.50;;;22.80;89.60;;;;;;4994126;28;20697;-68
2021/04/20 01:26:57;;;;;;;3.00;1.83;;;22.60;90.80;;;;;;4993663;28;20034;-68
2021/04/20 01:29:25;;;;;;;2.10;1.27;;;22.20;90.10;;;;;;4982598;28;20026;-68
2021/04/20 01:31:52;;;;;;;5.68;2.00;;;22.00;89.90;;;;;;4974352;28;20042;-68
2021/04/20 01:34:20;;;;;;;6.03;1.83;;;22.20;90.00;;;;;;5003046;28;20041;-68
2021/04/20 01:36:50;;;;;;;3.33;1.63;;;21.90;88.20;;;;;;4988779;28;20030;-68
2021/04/20 01:39:17;;;;;;;7.97;2.08;;;22.20;91.00;;;;;;4982527;28;20038;-67
2021/04/20 01:41:45;;;;;;;5.30;1.70;;;22.50;89.40;;;;;;4990493;28;20116;-67
2021/04/20 01:44:12;;;;;;;2.28;1.20;;;22.60;89.50;;;;;;4991160;28;20032;-67
2021/04/20 01:46:40;;;;;;;5.28;1.40;;;22.20;85.70;;;;;;4997011;28;20418;-66
2021/04/20 01:49:07;;;;;;;4.85;1.55;;;21.90;87.90;;;;;;4991390;28;20029;-66
2021/04/20 01:51:34;;;;;;;2.33;1.40;;;21.80;88.80;;;;;;4986936;28;20487;-68
2021/04/20 01:54:02;;;;;;;3.55;1.30;;;22.10;87.10;;;;;;4998889;28;20026;-67
2021/04/20 01:56:31;;;;;;;6.82;1.50;;;21.80;86.70;;;;;;4990241;28;20038;-67
2021/04/20 01:58:59;;;;;;;4.70;1.33;;;21.70;87.10;;;;;;5009305;28;20459;-67
2021/04/20 02:01:29;;;;;;;3.78;1.50;;;21.60;89.00;;;;;;4995598;28;20026;-67
2021/04/20 02:03:56;;;;;;;5.25;1.35;;;21.50;89.10;;;;;;5008083;28;20084;-67
2021/04/20 02:06:26;;;;;;;9.18;1.30;;;21.30;88.30;;;;;;4999832;28;20030;-67
2021/04/20 02:08:54;;;;;;;4.20;1.30;;;21.50;88.20;;;;;;4990541;28;20030;-67
2021/04/20 02:11:24;;;;;;;2.58;1.10;;;21.50;88.90;;;;;;4991523;28;20023;-67
2021/04/20 02:13:51;;;;;;;3.45;1.70;;;21.70;88.90;;;;;;4989268;28;20026;-67
2021/04/20 02:16:20;;;;;;;4.45;1.13;;;21.90;90.00;;;;;;4989242;28;20031;-67
2021/04/20 02:19:01;;;;;;;2.90;1.10;;;21.90;87.70;;;;;;4989421;28;20037;-67
2021/04/20 02:21:29;;;;;;;5.50;2.03;;;22.00;87.50;;;;;;4987322;28;20022;-67
2021/04/20 02:23:56;;;;;;;6.10;1.30;;;22.10;87.10;;;;;;4988355;28;20074;-67
2021/04/20 02:26:36;;;;;;;5.47;1.88;;;21.80;86.10;;;;;;4988817;28;20027;-67
2021/04/20 02:29:06;;;;;;;3.95;1.00;;;21.70;87.10;;;;;;4993831;28;20483;-67
2021/04/20 02:31:36;;;;;;;5.00;1.60;;;21.70;88.40;;;;;;4992220;28;20030;-67
2021/04/20 02:34:13;;;;;;;5.40;1.10;;;21.70;87.60;;;;;;5002760;28;20056;-67
2021/04/20 02:36:44;;;;;;;3.75;1.63;;;21.40;87.20;;;;;;4989608;28;20018;-67
2021/04/20 02:39:13;;;;;;;7.35;1.60;;;21.30;88.30;;;;;;4991944;28;20073;-67
2021/04/20 02:41:41;;;;;;;5.15;1.67;;;21.30;87.30;;;;;;4991063;28;20076;-67
2021/04/20 02:44:10;;;;;;;4.95;1.13;;;21.50;88.90;;;;;;4987845;28;20026;-67
2021/04/20 02:46:39;;;;;;;3.67;1.30;;;21.40;85.90;;;;;;4989203;28;20026;-67
2021/04/20 02:49:08;;;;;;;4.13;1.17;;;21.30;86.40;;;;;;4991137;28;20014;-67
2021/04/20 02:51:37;;;;;;;4.22;1.40;;;21.70;86.20;;;;;;4992088;28;20029;-67
2021/04/20 02:54:08;;;;;;;6.78;1.45;;;21.70;86.60;;;;;;4990989;28;20061;-68
2021/04/20 02:56:37;;;;;;;6.75;1.63;;;21.90;86.90;;;;;;4986143;28;20030;-68
2021/04/20 02:59:09;;;;;;;5.25;1.27;;;21.90;86.50;;;;;;4988514;28;20471;-68
2021/04/20 03:01:41;;;;;;;2.15;1.23;;;21.70;85.80;;;;;;4988128;28;20022;-68
2021/04/20 03:04:17;;;;;;;2.47;1.40;;;21.60;86.30;;;;;;4991308;28;20027;-68
2021/04/20 03:06:45;;;;;;;7.07;1.73;;;21.50;87.30;;;;;;4973159;28;20034;-67
2021/04/20 03:09:14;;;;;;;2.42;1.20;;;21.40;86.30;;;;;;5007412;28;20034;-67
2021/04/20 03:11:45;;;;;;;2.30;0.90;;;21.60;87.60;;;;;;4989803;28;20458;-66
2021/04/20 03:14:13;;;;;;;3.55;1.25;;;21.60;87.40;;;;;;4987930;28;20038;-67
2021/04/20 03:16:42;;;;;;;5.93;1.13;;;21.50;86.40;;;;;;4992215;28;20034;-66
2021/04/20 03:19:09;;;;;;;5.22;1.13;;;21.30;87.00;;;;;;4987267;28;20023;-68
2021/04/20 03:21:38;;;;;;;3.88;1.35;;;21.50;87.50;;;;;;4977729;28;20023;-68
2021/04/20 03:24:06;;;;;;;7.40;2.47;;;21.40;86.80;;;;;;5002443;28;20030;-68
2021/04/20 03:26:33;;;;;;;4.32;1.45;;;21.40;88.70;;;;;;4986569;28;20431;-68
2021/04/20 03:29:02;;;;;;;5.97;5.07;;;21.30;88.10;;;;;;4992477;28;20022;-67
2021/04/20 03:31:30;;;;;;;5.43;2.80;;;21.30;87.60;;;;;;5001082;28;20031;-67
2021/04/20 03:34:00;;;;;;;4.00;1.30;;;21.20;88.40;;;;;;4997159;28;20476;-68
2021/04/20 03:36:32;;;;;;;5.35;1.63;;;21.20;89.40;;;;;;5000154;28;20072;-68
2021/04/20 03:39:23;;;;;;;1.92;1.00;;;21.30;90.20;;;;;;5001789;28;20118;-68
2021/04/20 03:42:17;;;;;;;6.35;1.90;;;21.30;90.10;;;;;;4986809;28;20557;-68
2021/04/20 03:44:53;;;;;;;5.15;1.40;;;21.40;89.50;;;;;;5011298;28;20117;-68
2021/04/20 03:47:31;;;;;;;2.22;1.13;;;21.40;89.10;;;;;;5001854;28;20026;-68
2021/04/20 03:50:01;;;;;;;3.70;1.50;;;21.40;90.00;;;;;;4987934;28;20530;-68
2021/04/20 03:52:39;;;;;;;4.35;1.60;;;21.40;87.70;;;;;;4991103;28;20028;-68
2021/04/20 03:55:11;;;;;;;4.88;1.40;;;21.30;89.10;;;;;;4992733;28;20025;-68
2021/04/20 03:57:42;;;;;;;5.88;1.40;;;21.40;90.30;;;;;;4993398;28;20360;-68
2021/04/20 04:00:13;;;;;;;3.83;1.42;;;21.30;88.40;;;;;;4995810;28;20479;-68
2021/04/20 04:02:42;;;;;;;4.28;1.67;;;21.20;90.10;;;;;;4993185;28;20031;-68
2021/04/20 04:05:15;;;;;;;4.25;1.33;;;21.30;91.10;;;;;;4995186;28;20038;-69
2021/04/20 04:07:43;;;;;;;3.00;1.33;;;21.30;90.30;;;;;;4992344;28;20038;-69
2021/04/20 04:10:12;;;;;;;2.83;1.40;;;21.30;89.90;;;;;;4993926;28;20049;-69
2021/04/20 04:12:41;;;;;;;5.03;1.30;;;21.30;89.60;;;;;;4997597;28;20118;-68
2021/04/20 04:15:11;;;;;;;5.25;1.67;;;21.30;90.60;;;;;;4993440;28;20027;-69
2021/04/20 04:17:43;;;;;;;5.78;1.20;;;21.20;90.00;;;;;;5004065;28;20364;-69
2021/04/20 04:20:13;;;;;;;2.63;1.40;;;21.20;91.70;;;;;;4994817;28;20029;-69
2021/04/20 04:22:55;;;;;;;4.18;1.38;;;21.20;91.30;;;;;;4982810;28;20038;-68
2021/04/20 04:25:26;;;;;;;4.47;1.45;;;21.10;91.70;;;;;;5002186;28;20490;-68
2021/04/20 04:27:57;;;;;;;3.38;1.15;;;21.10;91.60;;;;;;4998924;28;20026;-69
2021/04/20 04:30:27;;;;;;;4.57;1.48;;;21.10;91.20;;;;;;5017265;28;20057;-69
2021/04/20 04:32:56;;;;;;;2.15;1.00;;;21.20;90.30;;;;;;5014473;28;20026;-69
2021/04/20 04:35:23;;;;;;;6.57;1.50;;;21.20;90.90;;;;;;5018268;28;20034;-69
2021/04/20 04:37:51;;;;;;;4.57;1.40;;;21.30;91.50;;;;;;5013905;28;20033;-69
2021/04/20 04:40:21;;;;;;;4.07;1.45;;;21.20;91.30;;;;;;5008904;28;20026;-69
2021/04/20 04:42:51;;;;;;;4.57;1.20;;;21.30;91.40;;;;;;5004063;28;20105;-68
2021/04/20 04:45:18;;;;;;;4.45;1.40;;;21.30;91.30;;;;;;4995928;28;20495;-69
2021/04/20 04:47:46;;;;;;;5.30;1.10;;;21.40;91.60;;;;;;4987728;28;20037;-69
2021/04/20 04:50:14;;;;;;;2.65;1.60;;;21.40;91.20;;;;;;4994716;28;20132;-69
2021/04/20 04:52:42;;;;;;;6.30;1.33;;;21.60;91.60;;;;;;4995099;28;20185;-69
2021/04/20 04:55:10;;;;;;;5.78;1.58;;;21.60;91.60;;;;;;4993430;28;20037;-68
2021/04/20 04:57:41;;;;;;;2.83;1.63;;;21.50;91.40;;;;;;4990998;28;20037;-68
2021/04/20 05:00:09;;;;;;;4.05;1.33;;;21.60;91.90;;;;;;4994465;28;20479;-68
2021/04/20 05:02:39;;;;;;;3.13;1.50;;;21.70;90.90;;;;;;4992872;28;20027;-67
2021/04/20 05:05:09;;;;;;;5.82;1.23;;;21.70;91.70;;;;;;4994562;28;20085;-68
2021/04/20 05:07:36;;;;;;;2.30;1.10;;;21.70;91.40;;;;;;4992351;28;20053;-68
2021/04/20 05:10:06;;;;;;;4.70;1.60;;;21.70;91.90;;;;;;4994541;28;20035;-68
2021/04/20 05:12:35;;;;;;;3.75;1.83;;;21.60;92.30;;;;;;4993275;28;20106;-68
2021/04/20 05:15:13;;;;;;;4.95;1.75;;;21.40;92.20;;;;;;4992550;28;20034;-68
2021/04/20 05:17:42;;;;;;;3.88;1.52;;;21.20;94.90;;;;;;4994333;28;20458;-67
2021/04/20 05:20:17;;;;;;;4.53;1.73;;;21.00;93.10;;;;;;4997326;28;20030;-68
2021/04/20 05:22:45;;;;;;;4.18;1.40;;;20.90;93.20;;;;;;4991407;28;20035;-68
2021/04/20 05:25:15;;;;;;;3.15;1.35;;;20.90;93.50;;;;;;4992285;28;20026;-68
2021/04/20 05:27:44;;;;;;;5.15;1.70;;;20.90;93.50;;;;;;4998128;28;20032;-68
2021/04/20 05:30:12;;;;;;;5.40;1.60;;;20.80;94.20;;;;;;4990390;28;20036;-68
2021/04/20 05:32:41;;;;;;;8.38;1.60;;;20.80;93.80;;;;;;4993985;28;20517;-68
2021/04/20 05:35:10;;;;;;;2.90;1.77;;;20.90;94.20;;;;;;4988633;28;20027;-68
2021/04/20 05:37:40;;;;;;;2.45;1.50;;;21.00;94.20;;;;;;4993437;28;20076;-69
2021/04/20 05:40:30;;;;;;;5.82;1.75;;;20.90;94.40;;;;;;4990861;28;20026;-69
2021/04/20 05:42:58;;;;;;;3.78;1.77;;;20.80;94.60;;;;;;4986662;28;20535;-69
2021/04/20 05:45:26;;;;;;;2.83;1.38;;;20.70;95.00;;;;;;4994913;28;20052;-69
2021/04/20 05:47:54;;;;;;;8.48;2.17;;;20.60;95.30;;;;;;4987860;28;20033;-69
2021/04/20 05:50:27;;;;;;;5.25;1.80;;;20.60;96.40;;;;;;4990704;28;20046;-69
2021/04/20 05:52:55;;;;;;;4.20;2.08;;;20.50;95.80;;;;;;4991849;28;20101;-69
2021/04/20 05:55:23;;;;;;;5.07;1.75;;;20.50;95.80;;;;;;4991315;28;20033;-70
2021/04/20 05:57:52;;;;;;;5.50;1.90;;;20.40;96.10;;;;;;4992433;28;20438;-69
2021/04/20 06:00:22;;;;;;;3.67;1.70;;;20.40;96.30;;;;;;4990452;28;20023;-69
2021/04/20 06:02:51;;;;;;;5.18;1.95;;;20.40;98.70;;;;;;4991887;28;20475;-69
2021/04/20 06:05:21;;;;;;;4.32;1.70;;;20.30;97.50;;;;;;4993398;28;20045;-69
2021/04/20 06:07:53;;;;;;;3.40;1.50;;;20.20;97.50;;;;;;4992185;28;20402;-69
2021/04/20 06:10:21;;;;;;;5.07;1.98;;;20.20;97.30;;;;;;4993470;28;20038;-69
2021/04/20 06:12:48;;;;;;;4.97;1.98;;;20.20;98.20;;;;;;4991156;28;20410;-69
2021/04/20 06:15:21;;;;;;;5.13;1.80;;;20.10;97.00;;;;;;4990260;28;20033;-70
2021/04/20 06:17:52;;;;;;;4.25;1.88;;;20.10;97.80;;;;;;4993906;28;20081;-69
2021/04/20 06:20:22;;;;;;;7.38;1.73;;;20.00;97.30;;;;;;4991565;28;20042;-69
2021/04/20 06:22:53;;;;;;;10.15;2.40;;;20.10;96.80;;;;;;4991399;28;20387;-69
2021/04/20 06:25:21;;;;;;;4.05;2.00;;;20.10;96.80;;;;;;4992732;28;20034;-69
2021/04/20 06:27:49;;;;;;;3.17;1.63;;;20.10;96.80;;;;;;4990843;28;20030;-69
2021/04/20 06:30:19;;;;;;;3.90;1.50;;;20.10;96.60;;;;;;5002018;28;20109;-69
2021/04/20 06:32:47;;;;;;;2.92;1.50;;;20.10;96.90;;;;;;5001097;28;20129;-69
2021/04/20 06:35:16;;;;;;;5.47;1.80;;;20.10;97.10;;;;;;4992975;28;20080;-68
2021/04/20 06:37:47;;;;;;;5.82;1.63;;;20.00;97.20;;;;;;4990997;28;20109;-68
2021/04/20 06:40:27;;;;;;;3.58;1.90;;;20.00;97.60;;;;;;4991629;28;20491;-68
2021/04/20 06:43:05;;;;;;;3.67;1.75;;;20.00;99.30;;;;;;4982163;28;20018;-69
2021/04/20 06:45:49;;;;;;;7.05;1.90;;;19.80;98.80;;;;;;4992715;28;20029;-69
2021/04/20 06:48:54;;;;;;;73.45;11.18;;;19.80;98.70;;;;;;4990064;28;20383;-68
2021/04/20 06:51:38;;;;;;;141.55;23.42;;;19.70;98.20;;;;;;4991140;28;20495;-68
2021/04/20 06:54:20;;;;;;;4.75;1.92;;;19.70;98.70;;;;;;4992485;28;20687;-68
2021/04/20 06:57:09;;;;;;;11.90;2.60;;;19.70;97.80;;;;;;4990943;28;20030;-68
2021/04/20 07:00:06;;;;;;;5.88;1.77;;;19.60;98.30;;;;;;4987156;28;20490;-68
2021/04/20 07:02:59;;;;;;;3.35;1.77;;;19.60;99.00;;;;;;4990383;28;20102;-68
2021/04/20 07:05:45;;;;;;;5.13;1.92;;;19.50;99.30;;;;;;4989014;28;20058;-68
2021/04/20 07:08:18;;;;;;;5.60;1.50;;;19.40;98.50;;;;;;4986653;28;20022;-68
2021/04/20 07:10:46;;;;;;;4.38;1.42;;;19.40;97.60;;;;;;4987235;28;20045;-68
2021/04/20 07:13:20;;;;;;;2.88;1.50;;;19.40;98.10;;;;;;4985804;28;20109;-68
2021/04/20 07:15:57;;;;;;;3.22;1.20;;;19.40;98.30;;;;;;4989590;28;20109;-68
2021/04/20 07:18:49;;;;;;;6.55;1.70;;;19.40;98.30;;;;;;4993037;28;20029;-69
2021/04/20 07:21:52;;;;;;;6.18;1.60;;;19.30;98.20;;;;;;4988636;28;20184;-69
2021/04/20 07:24:25;;;;;;;5.55;1.75;;;19.20;99.50;;;;;;4987059;28;20038;-68
2021/04/20 07:26:55;;;;;;;3.90;1.73;;;19.20;99.50;;;;;;4986296;28;21257;-68
2021/04/20 07:29:31;;;;;;;7.85;1.88;;;19.00;99.70;;;;;;4990240;28;20065;-69
2021/04/20 07:32:24;;;;;;;3.92;2.00;;;19.00;99.90;;;;;;4991817;28;20468;-68
2021/04/20 07:35:09;;;;;;;4.45;1.80;;;19.00;99.90;;;;;;5008907;28;20034;-68
2021/04/20 07:38:02;;;;;;;9.02;1.88;;;19.00;99.90;;;;;;4992382;28;20030;-68
2021/04/20 07:40:35;;;;;;;6.03;2.35;;;18.90;99.90;;;;;;4994534;28;20026;-68
2021/04/20 07:43:26;;;;;;;5.23;1.90;;;18.90;99.90;;;;;;5001762;28;20037;-68
2021/04/20 07:46:00;;;;;;;4.88;1.85;;;18.90;99.70;;;;;;5001479;28;20327;-68
2021/04/20 07:48:45;;;;;;;9.10;2.87;;;18.90;99.90;;;;;;4989978;28;20041;-68
2021/04/20 07:51:42;;;;;;;7.82;2.60;;;18.80;99.90;;;;;;5010673;28;20074;-68
2021/04/20 07:54:33;;;;;;;5.45;2.92;;;18.70;99.90;;;;;;4991849;28;20053;-68
2021/04/20 07:57:09;;;;;;;4.72;1.83;;;18.70;99.90;;;;;;4994877;28;20069;-68
2021/04/20 08:00:04;;;;;;;5.20;2.35;;;18.70;99.70;;;;;;4994208;28;20062;-68
2021/04/20 08:02:48;;;;;;;4.20;1.25;;;18.70;99.90;;;;;;5007004;28;20026;-68
2021/04/20 08:05:29;;;;;;;3.92;1.92;;;18.70;99.70;;;;;;4993833;28;20034;-68
2021/04/20 08:08:00;;;;;;;4.07;1.73;;;18.60;99.50;;;;;;4989411;28;20030;-68
2021/04/20 08:10:52;;;;;;;3.95;1.50;;;18.60;99.90;;;;;;4995477;28;20023;-68
2021/04/20 08:13:39;;;;;;;3.90;1.35;;;18.50;99.90;;;;;;4989179;28;20043;-68
2021/04/20 08:16:33;;;;;;;4.68;1.50;;;18.40;99.90;;;;;;4985465;28;20030;-68
2021/04/20 08:19:00;;;;;;;4.65;1.75;;;18.30;99.90;;;;;;4989341;28;20077;-69
2021/04/20 08:21:31;;;;;;;3.50;1.52;;;18.30;99.90;;;;;;4994391;28;20089;-67
2021/04/20 08:24:00;;;;;;;5.72;1.90;;;18.30;99.90;;;;;;4991530;28;20498;-68
2021/04/20 08:26:44;;;;;;;8.38;2.25;;;18.30;99.90;;;;;;4993301;28;20531;-68
2021/04/20 08:29:32;;;;;;;12.40;5.27;;;18.30;99.30;;;;;;4992196;28;20049;-68
2021/04/20 08:32:05;;;;;;;7.25;3.33;;;18.40;99.90;;;;;;4988907;28;20284;-68
2021/04/20 08:34:37;;;;;;;8.45;3.28;;;18.30;99.90;;;;;;4994041;28;20034;-68
2021/04/20 08:37:07;;;;;;;6.18;3.67;;;18.30;99.90;;;;;;4993191;28;20042;-68
2021/04/20 08:40:00;;;;;;;11.98;4.93;;;18.20;99.90;;;;;;4995179;28;20022;-68
2021/04/20 08:42:51;;;;;;;10.40;4.80;;;18.10;99.90;;;;;;4992687;28;20026;-68
2021/04/20 08:45:27;;;;;;;8.32;3.97;;;18.00;99.90;;;;;;4994527;28;20085;-68
2021/04/20 08:48:17;;;;;;;5.85;2.72;;;18.00;99.90;;;;;;4992669;28;20561;-68
2021/04/20 08:51:05;;;;;;;8.85;2.97;;;17.80;99.90;;;;;;4994543;28;20057;-68
2021/04/20 08:53:55;;;;;;;8.70;3.35;;;17.80;99.90;;;;;;4991418;28;20034;-68
2021/04/20 08:56:37;;;;;;;8.38;3.33;;;17.70;99.90;;;;;;4992957;28;20034;-68
2021/04/20 08:59:51;;;;;;;8.90;3.33;;;17.70;99.90;;;;;;4994185;28;20026;-68
2021/04/20 09:02:23;;;;;;;6.43;2.50;;;17.50;99.90;;;;;;4986274;28;20450;-68
2021/04/20 09:05:11;;;;;;;4.85;2.40;;;17.50;99.90;;;;;;4989783;28;20041;-67
2021/04/20 09:07:59;;;;;;;5.82;2.55;;;17.40;99.90;;;;;;4988820;28;20093;-68
2021/04/20 09:10:32;;;;;;;8.50;2.70;;;17.50;99.90;;;;;;4993064;28;20018;-67
2021/04/20 09:13:20;;;;;;;9.05;3.30;;;17.50;99.90;;;;;;4991595;28;20030;-67
2021/04/20 09:16:04;;;;;;;10.13;3.85;;;17.40;99.90;;;;;;4994706;28;20034;-67
2021/04/20 09:18:38;;;;;;;14.10;4.28;;;17.40;99.90;;;;;;4986734;28;20089;-67
2021/04/20 09:21:22;;;;;;;10.88;3.40;;;17.40;99.90;;;;;;4986198;28;20034;-67
2021/04/20 09:24:00;;;;;;;5.05;2.20;;;17.50;99.90;;;;;;5004952;28;20026;-67
2021/04/20 09:26:50;;;;;;;5.25;2.10;;;17.70;99.90;;;;;;4993858;28;20428;-67
2021/04/20 09:29:32;;;;;;;4.68;1.80;;;18.00;99.80;;;;;;4989003;28;20033;-67
2021/04/20 09:32:07;;;;;;;7.63;2.70;;;18.10;99.80;;;;;;4990279;28;20108;-67
2021/04/20 09:34:42;;;;;;;5.53;2.63;;;18.10;99.10;;;;;;4993443;28;20015;-67
2021/04/20 09:37:10;;;;;;;3.15;2.40;;;18.20;99.00;;;;;;4988488;28;20015;-67
2021/04/20 09:39:42;;;;;;;4.28;2.05;;;18.20;98.90;;;;;;4991933;28;20030;-68
2021/04/20 09:42:12;;;;;;;4.72;2.10;;;18.30;98.10;;;;;;4989710;28;20109;-67
2021/04/20 09:45:00;;;;;;;7.45;2.08;;;18.40;98.10;;;;;;4992409;28;20032;-67
2021/04/20 09:47:58;;;;;;;4.75;2.00;;;18.30;98.90;;;;;;4991716;28;20029;-67
2021/04/20 09:50:50;;;;;;;5.57;2.10;;;18.30;98.40;;;;;;4988755;28;20073;-67
2021/04/20 09:53:50;;;;;;;5.22;1.92;;;18.30;98.10;;;;;;4989088;28;20319;-67
2021/04/20 09:56:38;;;;;;;5.82;1.80;;;18.20;98.20;;;;;;4991210;28;20042;-67
2021/04/20 09:59:24;;;;;;;7.88;2.28;;;18.20;98.20;;;;;;4994004;28;20101;-68
2021/04/20 10:02:15;;;;;;;7.30;1.83;;;18.00;99.60;;;;;;4998514;28;20483;-68
2021/04/20 10:04:43;;;;;;;6.88;1.98;;;17.90;99.70;;;;;;4993486;28;20109;-67
2021/04/20 10:07:27;;;;;;;3.45;1.77;;;17.90;99.90;;;;;;4996987;28;20046;-68
2021/04/20 10:10:16;;;;;;;6.32;2.30;;;17.70;99.90;;;;;;4996693;28;20099;-69
2021/04/20 10:13:04;;;;;;;5.70;2.78;;;17.50;99.90;;;;;;4995910;28;20031;-67
2021/04/20 10:15:50;;;;;;;4.07;1.98;;;17.40;99.90;;;;;;4988383;28;20041;-68
2021/04/20 10:18:48;;;;;;;5.97;2.58;;;17.30;99.90;;;;;;4988753;28;20027;-67
2021/04/20 10:21:29;;;;;;;6.20;2.85;;;17.30;99.90;;;;;;4990497;28;20043;-68
2021/04/20 10:24:11;;;;;;;7.97;2.63;;;17.20;99.90;;;;;;4992206;28;20097;-65
2021/04/20 10:26:47;;;;;;;6.65;3.05;;;17.10;99.90;;;;;;4992070;28;20042;-66
2021/04/20 10:29:59;;;;;;;5.55;2.45;;;17.10;99.90;;;;;;4991995;28;20057;-67
2021/04/20 10:32:29;;;;;;;9.23;3.17;;;17.00;99.90;;;;;;4992821;28;20046;-68
2021/04/20 10:34:58;;;;;;;4.85;2.45;;;16.90;99.90;;;;;;4992406;28;20034;-68
2021/04/20 10:37:40;;;;;;;4.28;2.55;;;16.90;99.90;;;;;;4993077;28;20018;-68
2021/04/20 10:40:14;;;;;;;3.72;1.98;;;16.90;99.90;;;;;;4993094;28;20026;-68
2021/04/20 10:42:48;;;;;;;5.93;2.30;;;16.90;99.90;;;;;;4993401;28;20487;-68
2021/04/20 10:45:18;;;;;;;5.65;2.60;;;16.80;99.90;;;;;;4992329;28;20034;-68
2021/04/20 10:47:51;;;;;;;6.35;2.90;;;16.80;99.90;;;;;;4991102;28;20038;-68
2021/04/20 10:50:26;;;;;;;6.43;2.60;;;16.80;99.90;;;;;;4992871;28;20047;-68
2021/04/20 10:53:08;;;;;;;7.45;3.15;;;16.80;99.90;;;;;;4993086;28;20033;-68
2021/04/20 10:55:38;;;;;;;8.13;2.65;;;16.80;99.90;;;;;;4991822;28;20034;-68
2021/04/20 10:58:08;;;;;;;12.75;3.35;;;16.70;99.90;;;;;;4992071;28;20042;-66
2021/04/20 11:00:36;;;;;;;7.13;2.85;;;16.70;99.90;;;;;;4991467;28;20034;-66
2021/04/20 11:03:05;;;;;;;8.55;3.05;;;16.60;99.90;;;;;;4992643;28;20038;-66
2021/04/20 11:05:34;;;;;;;5.38;2.72;;;16.60;99.90;;;;;;4994607;28;20048;-66
2021/04/20 11:08:01;;;;;;;5.22;2.55;;;16.60;99.90;;;;;;4996829;28;20041;-66
2021/04/20 11:10:38;;;;;;;4.57;1.98;;;16.60;99.90;;;;;;4994682;28;20030;-67
2021/04/20 11:13:05;;;;;;;5.82;2.15;;;16.60;99.90;;;;;;4995538;28;20065;-67
2021/04/20 11:15:34;;;;;;;4.13;2.00;;;16.60;99.90;;;;;;4997155;28;20077;-67
2021/04/20 11:18:06;;;;;;;4.13;1.63;;;16.50;99.90;;;;;;4997094;28;20026;-67
2021/04/20 11:20:43;;;;;;;6.35;2.20;;;16.40;99.90;;;;;;4996523;28;20022;-68
2021/04/20 11:23:10;;;;;;;4.90;2.10;;;16.30;99.90;;;;;;4996722;28;20031;-67
2021/04/20 11:25:48;;;;;;;9.95;2.20;;;16.30;99.90;;;;;;4996392;28;20030;-68
2021/04/20 11:28:43;;;;;;;5.60;2.38;;;16.20;99.90;;;;;;4983200;28;20030;-68
2021/04/20 11:31:31;;;;;;;8.25;2.70;;;16.20;99.90;;;;;;4992511;28;20096;-66
2021/04/20 11:34:04;;;;;;;4.85;2.20;;;16.20;99.90;;;;;;4993039;28;20026;-66
2021/04/20 11:36:54;;;;;;;6.13;2.38;;;16.20;99.90;;;;;;4991267;28;20040;-66
2021/04/20 11:39:28;;;;;;;7.75;2.42;;;16.20;99.90;;;;;;4991716;28;20497;-66
2021/04/20 11:42:11;;;;;;;7.25;3.20;;;16.10;99.90;;;;;;4996898;28;20031;-66
2021/04/20 11:44:47;;;;;;;7.35;3.00;;;16.20;99.90;;;;;;4988569;28;20034;-67
2021/04/20 11:47:15;;;;;;;6.53;2.72;;;16.10;99.90;;;;;;4994290;28;20172;-66
2021/04/20 11:50:08;;;;;;;6.15;2.33;;;16.00;99.90;;;;;;4993017;28;20129;-66
2021/04/20 11:52:36;;;;;;;6.72;2.53;;;15.90;99.90;;;;;;4993747;28;20038;-67
2021/04/20 11:55:10;;;;;;;5.22;2.30;;;15.90;99.90;;;;;;4993772;28;20030;-67
2021/04/20 11:57:40;;;;;;;6.75;2.20;;;15.80;99.90;;;;;;4993534;28;20121;-67
2021/04/20 12:00:10;;;;;;;4.07;2.28;;;15.80;99.90;;;;;;4994212;28;20019;-67
2021/04/20 12:02:40;;;;;;;4.10;2.42;;;15.80;99.90;;;;;;4990615;28;20030;-67
2021/04/20 12:05:12;;;;;;;3.20;1.67;;;15.80;99.90;;;;;;4992361;28;20018;-67
2021/04/20 12:07:41;;;;;;;4.50;1.58;;;15.80;99.90;;;;;;4992313;28;20031;-67
2021/04/20 12:10:16;;;;;;;5.85;2.42;;;15.80;99.90;;;;;;4993661;28;20018;-67
2021/04/20 12:12:49;;;;;;;5.57;2.22;;;15.70;99.90;;;;;;4990804;28;20030;-67
2021/04/20 12:15:19;;;;;;;6.70;2.40;;;15.70;99.90;;;;;;4991542;28;20053;-67
2021/04/20 12:17:47;;;;;;;4.90;1.90;;;15.80;99.90;;;;;;4992990;28;20033;-67
2021/04/20 12:20:28;;;;;;;8.15;2.00;;;15.70;99.90;;;;;;4992480;28;20050;-67
2021/04/20 12:23:01;;;;;;;6.00;2.03;;;15.70;99.90;;;;;;5004242;28;20033;-67
2021/04/20 12:25:29;;;;;;;5.50;2.05;;;15.70;99.90;;;;;;4992882;28;20109;-67
2021/04/20 12:28:03;;;;;;;4.32;2.20;;;15.60;99.90;;;;;;4992295;28;20043;-67
2021/04/20 12:30:32;;;;;;;6.57;2.05;;;15.70;99.90;;;;;;4992422;28;20382;-67
2021/04/20 12:32:59;;;;;;;3.55;1.70;;;15.70;99.90;;;;;;4994786;28;20061;-67
2021/04/20 12:35:30;;;;;;;2.92;1.70;;;15.80;99.90;;;;;;4991301;28;20033;-67
2021/04/20 12:38:04;;;;;;;5.05;2.03;;;15.90;99.90;;;;;;4987976;28;20081;-67
2021/04/20 12:40:33;;;;;;;3.28;2.08;;;16.10;99.90;;;;;;4990866;28;20018;-67
2021/04/20 12:43:05;;;;;;;5.40;2.13;;;16.30;99.90;;;;;;4990425;28;20026;-67
2021/04/20 12:45:37;;;;;;;4.05;1.95;;;16.40;99.90;;;;;;4991461;28;20478;-67
2021/04/20 12:48:07;;;;;;;4.65;1.92;;;16.60;99.90;;;;;;4989757;28;20045;-67
2021/04/20 12:50:42;;;;;;;6.63;2.28;;;16.60;99.90;;;;;;4991911;28;20317;-67
2021/04/20 12:53:11;;;;;;;5.05;2.15;;;16.70;99.90;;;;;;4989551;28;20018;-67
2021/04/20 12:55:42;;;;;;;6.07;2.30;;;16.70;99.90;;;;;;4990080;28;20030;-67
2021/04/20 12:58:16;;;;;;;4.40;1.58;;;16.60;99.90;;;;;;4992492;28;20018;-67
2021/04/20 13:00:44;;;;;;;5.18;1.73;;;16.50;99.90;;;;;;4986090;28;20030;-67
2021/04/20 13:03:15;;;;;;;4.97;1.70;;;16.40;99.90;;;;;;4987485;28;20391;-67
2021/04/20 13:05:43;;;;;;;3.92;1.85;;;16.20;99.90;;;;;;4991901;28;20581;-67
2021/04/20 13:08:16;;;;;;;3.58;1.80;;;16.10;99.90;;;;;;4988927;28;20117;-67
2021/04/20 13:10:51;;;;;;;5.18;1.67;;;16.10;99.90;;;;;;4991648;28;20041;-67
2021/04/20 13:13:22;;;;;;;4.55;2.47;;;16.10;99.90;;;;;;4991959;28;20046;-67
2021/04/20 13:15:50;;;;;;;2.63;1.40;;;16.00;99.90;;;;;;4989723;28;20030;-67
2021/04/20 13:18:19;;;;;;;3.78;1.55;;;16.00;99.90;;;;;;4990352;28;20027;-67
2021/04/20 13:20:48;;;;;;;5.35;1.83;;;16.00;99.90;;;;;;4991991;28;20026;-67